Time;durP1;ratioP1;P1;durP2;ratioP2;P2;SDS_P1;SDS_P2;PMS_P1;PMS_P2;Temp;Humidity;BMP_temperature;BMP_pressure;BME280_temperature;BME280_humidity;BME280_pressure;Samples;Min_cycle;Max_cycle;Signal;HPM_P1;HPM_P2
2022/11/15 00:01:17;;;;;;;32.35;16.55;;;7.80;99.90;;;;;;4990706;28;20034;-79
2022/11/15 00:03:44;;;;;;;28.30;15.48;;;7.80;99.90;;;;;;5014072;28;20404;-79
2022/11/15 00:06:10;;;;;;;27.27;15.35;;;7.80;99.90;;;;;;4996574;28;20397;-79
2022/11/15 00:08:37;;;;;;;27.85;14.75;;;7.80;99.90;;;;;;4982352;28;20030;-79
2022/11/15 00:11:03;;;;;;;28.30;15.38;;;7.70;99.90;;;;;;4979429;28;20030;-79
2022/11/15 00:13:31;;;;;;;23.95;13.85;;;7.80;99.90;;;;;;5001579;28;20076;-79
2022/11/15 00:15:59;;;;;;;23.55;13.98;;;7.80;99.90;;;;;;5005829;28;20049;-79
2022/11/15 00:18:29;;;;;;;26.30;14.48;;;7.80;99.90;;;;;;5017164;28;20107;-79
2022/11/15 00:21:06;;;;;;;26.42;14.57;;;7.80;99.90;;;;;;5016086;28;20025;-80
2022/11/15 00:23:33;;;;;;;25.88;15.65;;;7.80;99.90;;;;;;5014298;28;20072;-80
2022/11/15 00:26:00;;;;;;;25.38;15.10;;;7.80;99.90;;;;;;5017550;28;20048;-80
2022/11/15 00:28:26;;;;;;;21.80;13.45;;;7.80;99.90;;;;;;5007198;28;20109;-80
2022/11/15 00:30:52;;;;;;;28.23;15.63;;;7.80;99.90;;;;;;5012986;28;20029;-79
2022/11/15 00:33:17;;;;;;;29.02;15.30;;;7.80;99.90;;;;;;5009138;28;20026;-80
2022/11/15 00:35:43;;;;;;;26.73;15.50;;;7.80;99.90;;;;;;5028521;28;20057;-80
2022/11/15 00:38:09;;;;;;;22.98;14.23;;;7.90;99.90;;;;;;5005379;28;20116;-80
2022/11/15 00:40:36;;;;;;;24.88;14.27;;;7.90;99.90;;;;;;4998685;28;20456;-80
2022/11/15 00:43:02;;;;;;;26.02;13.30;;;7.90;99.90;;;;;;5010467;28;20029;-80
2022/11/15 00:45:28;;;;;;;21.63;12.10;;;7.90;99.90;;;;;;5028972;28;20033;-80
2022/11/15 00:47:54;;;;;;;24.08;13.43;;;7.90;99.90;;;;;;5011216;28;20372;-82
2022/11/15 00:50:20;;;;;;;26.23;15.75;;;7.90;99.90;;;;;;5013682;28;20025;-80
2022/11/15 00:52:46;;;;;;;21.13;13.00;;;7.90;99.90;;;;;;5016502;28;20025;-80
2022/11/15 00:55:19;;;;;;;23.55;13.77;;;7.90;99.90;;;;;;5033596;28;20029;-80
2022/11/15 00:57:46;;;;;;;20.00;13.50;;;7.90;99.90;;;;;;5010316;28;20370;-80
2022/11/15 01:00:13;;;;;;;23.45;14.15;;;7.90;99.90;;;;;;5030149;28;20061;-80
2022/11/15 01:02:38;;;;;;;24.27;15.38;;;7.90;99.90;;;;;;5016647;28;20024;-81
2022/11/15 01:05:05;;;;;;;25.38;15.73;;;7.90;99.90;;;;;;5012173;28;20389;-80
2022/11/15 01:07:31;;;;;;;22.25;15.07;;;7.90;99.90;;;;;;5015737;28;20493;-80
2022/11/15 01:09:57;;;;;;;20.85;13.85;;;7.90;99.90;;;;;;5033590;28;20151;-81
2022/11/15 01:12:22;;;;;;;19.90;13.00;;;7.90;99.90;;;;;;4997669;28;20115;-81
2022/11/15 01:14:49;;;;;;;21.38;13.77;;;7.90;99.90;;;;;;5006894;28;20021;-81
2022/11/15 01:17:15;;;;;;;20.73;13.05;;;8.00;99.90;;;;;;5005630;28;20546;-80
2022/11/15 01:19:40;;;;;;;18.95;12.60;;;7.90;99.90;;;;;;5029707;28;20026;-81
2022/11/15 01:22:06;;;;;;;19.35;12.55;;;8.00;99.90;;;;;;5032015;28;20036;-81
2022/11/15 01:24:31;;;;;;;20.52;12.90;;;8.00;99.90;;;;;;5028098;28;20029;-81
2022/11/15 01:26:57;;;;;;;16.85;10.95;;;8.00;99.90;;;;;;5021579;28;20025;-82
2022/11/15 01:29:23;;;;;;;16.20;10.90;;;8.00;99.90;;;;;;5030401;28;20465;-80
2022/11/15 01:31:49;;;;;;;15.98;11.18;;;8.00;99.90;;;;;;5032116;28;20013;-80
2022/11/15 01:34:15;;;;;;;16.45;11.00;;;8.10;99.90;;;;;;5030615;28;20026;-81
2022/11/15 01:36:40;;;;;;;14.50;10.20;;;8.10;99.90;;;;;;5032219;28;20037;-80
2022/11/15 01:39:06;;;;;;;16.95;10.30;;;8.20;99.90;;;;;;5033234;28;20458;-80
2022/11/15 01:41:33;;;;;;;13.68;9.75;;;8.10;99.90;;;;;;5028833;28;20476;-80
2022/11/15 01:44:36;;;;;;;14.93;10.05;;;8.20;99.90;;;;;;5032195;28;20462;-79
2022/11/15 01:47:07;;;;;;;17.45;11.38;;;8.20;99.90;;;;;;5019497;28;20025;-81
2022/11/15 01:49:35;;;;;;;16.92;11.35;;;8.20;99.90;;;;;;5021742;28;20478;-81
2022/11/15 01:52:03;;;;;;;16.63;11.20;;;8.20;99.90;;;;;;5012992;28;20022;-80
2022/11/15 01:54:30;;;;;;;14.73;10.35;;;8.30;99.90;;;;;;5001125;28;20022;-80
2022/11/15 01:57:02;;;;;;;16.08;10.23;;;8.30;99.90;;;;;;5026274;28;20034;-80
2022/11/15 01:59:28;;;;;;;15.93;9.87;;;8.30;99.90;;;;;;5022521;28;20124;-80
2022/11/15 02:01:54;;;;;;;16.25;9.95;;;8.30;99.90;;;;;;5016165;28;20492;-80
2022/11/15 02:04:32;;;;;;;13.57;9.40;;;8.40;99.90;;;;;;5033734;28;20021;-80
2022/11/15 02:06:59;;;;;;;12.52;9.00;;;8.40;99.90;;;;;;5032134;28;20029;-80
2022/11/15 02:09:25;;;;;;;13.15;9.13;;;8.40;99.90;;;;;;5032270;28;20037;-80
2022/11/15 02:11:53;;;;;;;12.70;9.15;;;8.50;99.90;;;;;;5032667;28;20014;-80
2022/11/15 02:14:19;;;;;;;11.50;8.20;;;8.50;99.90;;;;;;5033460;28;20075;-80
2022/11/15 02:17:14;;;;;;;12.23;8.43;;;8.60;99.90;;;;;;5031673;28;20477;-80
2022/11/15 02:19:51;;;;;;;12.30;8.57;;;8.60;99.90;;;;;;5003918;28;20038;-80
2022/11/15 02:22:32;;;;;;;11.77;7.50;;;8.70;99.90;;;;;;5022391;28;20030;-80
2022/11/15 02:25:11;;;;;;;10.23;6.70;;;8.70;99.90;;;;;;5031989;28;20112;-80
2022/11/15 02:27:59;;;;;;;12.50;8.10;;;8.70;99.90;;;;;;5032992;28;20117;-80
2022/11/15 02:30:34;;;;;;;11.60;7.50;;;8.80;99.90;;;;;;5032325;28;20473;-80
2022/11/15 02:33:42;;;;;;;11.68;7.47;;;8.90;99.90;;;;;;5018854;28;20029;-80
2022/11/15 02:36:20;;;;;;;10.32;7.40;;;8.90;99.90;;;;;;5031600;28;20095;-80
2022/11/15 02:38:52;;;;;;;10.70;7.88;;;8.90;99.90;;;;;;5032162;28;20099;-80
2022/11/15 02:41:30;;;;;;;11.60;8.15;;;9.00;99.90;;;;;;5037698;28;20040;-80
2022/11/15 02:44:12;;;;;;;10.55;7.70;;;9.00;99.90;;;;;;5023972;28;20084;-80
2022/11/15 02:49:39;;;;;;;14.93;10.50;;;9.10;99.90;;;;;;5021203;28;20044;-80
2022/11/15 02:52:05;;;;;;;15.18;10.82;;;9.20;99.90;;;;;;5031267;28;20040;-79
2022/11/15 02:54:32;;;;;;;16.38;12.15;;;9.30;99.90;;;;;;5032000;28;20025;-80
2022/11/15 02:57:03;;;;;;;17.60;12.18;;;9.30;99.90;;;;;;5031598;28;20029;-80
2022/11/15 02:59:49;;;;;;;14.85;11.73;;;9.30;99.90;;;;;;5031686;28;20022;-81
2022/11/15 03:02:25;;;;;;;15.63;11.85;;;9.40;99.90;;;;;;5031864;28;20500;-80
2022/11/15 03:05:08;;;;;;;16.35;11.40;;;9.40;99.90;;;;;;5018504;28;20026;-81
2022/11/15 03:08:16;;;;;;;15.95;11.65;;;9.50;99.90;;;;;;5031794;28;20036;-83
2022/11/15 03:10:41;;;;;;;19.13;13.75;;;9.50;99.90;;;;;;4988228;28;20034;-80
2022/11/15 03:13:16;;;;;;;19.73;13.50;;;9.50;99.90;;;;;;5031225;28;20469;-80
2022/11/15 03:16:05;;;;;;;16.58;12.05;;;9.60;99.90;;;;;;5031160;28;20075;-80
2022/11/15 03:18:38;;;;;;;16.52;12.40;;;9.60;99.90;;;;;;5031465;28;20041;-81
2022/11/15 03:21:08;;;;;;;21.08;14.93;;;9.60;99.90;;;;;;5030907;28;20026;-81
2022/11/15 03:23:36;;;;;;;18.08;12.48;;;9.70;99.90;;;;;;5021601;28;20071;-82
2022/11/15 03:26:07;;;;;;;17.48;12.45;;;9.70;99.90;;;;;;5033909;28;20470;-81
2022/11/15 03:28:40;;;;;;;16.40;11.95;;;9.70;99.90;;;;;;5034966;28;20022;-81
2022/11/15 03:33:55;;;;;;;19.17;14.38;;;9.70;99.90;;;;;;5036099;28;20045;-81
2022/11/15 03:36:23;;;;;;;22.27;15.75;;;9.70;99.90;;;;;;5034546;28;20038;-81
2022/11/15 03:38:49;;;;;;;18.42;13.57;;;9.80;99.90;;;;;;5031832;28;20458;-82
2022/11/15 03:41:36;;;;;;;15.98;12.85;;;9.80;99.90;;;;;;5031898;28;20025;-80
2022/11/15 03:44:16;;;;;;;19.05;13.75;;;9.90;99.90;;;;;;5027619;28;20032;-81
2022/11/15 03:47:06;;;;;;;20.65;14.38;;;9.90;99.90;;;;;;5028984;28;20044;-79
2022/11/15 03:49:39;;;;;;;18.45;13.55;;;10.00;99.90;;;;;;5034809;28;20026;-80
2022/11/15 03:52:05;;;;;;;20.98;13.57;;;10.00;99.90;;;;;;5035154;28;20080;-80
2022/11/15 03:54:31;;;;;;;22.05;14.02;;;10.00;99.90;;;;;;5029303;28;20075;-81
2022/11/15 03:56:57;;;;;;;18.98;14.02;;;10.10;99.90;;;;;;5027299;28;20025;-79
2022/11/15 03:59:25;;;;;;;17.52;13.40;;;10.10;99.90;;;;;;5028327;28;20018;-79
2022/11/15 04:01:51;;;;;;;17.58;13.35;;;10.20;99.90;;;;;;5015535;28;20037;-79
2022/11/15 04:04:17;;;;;;;17.73;12.95;;;10.20;99.90;;;;;;5028487;28;20108;-80
2022/11/15 04:06:42;;;;;;;18.42;13.57;;;10.20;99.90;;;;;;5024458;28;20038;-80
2022/11/15 04:09:08;;;;;;;18.67;14.25;;;10.30;99.90;;;;;;5020576;28;20113;-80
2022/11/15 04:11:34;;;;;;;18.95;14.95;;;10.30;99.90;;;;;;5015719;28;20378;-81
2022/11/15 04:13:59;;;;;;;23.60;16.77;;;10.30;99.90;;;;;;5006400;28;20101;-80
2022/11/15 04:16:25;;;;;;;22.25;17.15;;;10.40;99.90;;;;;;5033277;28;20056;-80
2022/11/15 04:24:11;;;;;;;19.42;13.88;;;10.40;99.90;;;;;;5022437;28;20524;-79
2022/11/15 04:24:20;;;;;;;22.08;14.90;;;10.40;99.90;;;;;;5016349;28;20083;-80
2022/11/15 04:26:46;;;;;;;18.25;14.45;;;10.50;99.90;;;;;;5033803;28;20025;-80
2022/11/15 04:31:55;;;;;;;18.75;13.80;;;10.50;99.90;;;;;;5024628;28;20112;-80
2022/11/15 04:34:21;;;;;;;20.75;15.75;;;10.50;99.90;;;;;;5020586;28;20473;-79
2022/11/15 04:37:20;;;;;;;18.75;14.80;;;10.50;99.90;;;;;;5025372;28;20034;-80
2022/11/15 04:39:40;;;;;;;20.05;13.30;;;10.50;99.90;;;;;;5030888;28;20056;-79
2022/11/15 04:42:07;;;;;;;18.50;13.98;;;10.50;99.90;;;;;;5034257;28;20024;-79
2022/11/15 04:44:33;;;;;;;20.15;14.93;;;10.60;99.90;;;;;;5033135;28;20373;-79
2022/11/15 04:46:58;;;;;;;17.73;13.50;;;10.60;99.90;;;;;;5032796;28;20024;-79
2022/11/15 04:49:24;;;;;;;18.58;13.05;;;10.60;99.90;;;;;;5028477;28;20025;-79
2022/11/15 04:51:50;;;;;;;17.33;11.93;;;10.60;99.90;;;;;;5027217;28;20025;-80
2022/11/15 04:54:16;;;;;;;17.63;12.00;;;10.60;99.90;;;;;;5032784;28;20022;-80
2022/11/15 04:56:42;;;;;;;14.80;11.57;;;10.60;99.90;;;;;;5034056;28;20160;-80
2022/11/15 04:59:07;;;;;;;17.35;12.35;;;10.60;99.90;;;;;;5032763;28;20084;-80
2022/11/15 05:01:33;;;;;;;19.92;13.80;;;10.70;99.90;;;;;;5033933;28;20128;-82
2022/11/15 05:04:19;;;;;;;17.02;13.18;;;10.70;99.90;;;;;;5033680;28;20542;-80
2022/11/15 05:06:50;;;;;;;19.38;13.93;;;10.70;99.90;;;;;;5019959;28;20038;-80
2022/11/15 05:09:17;;;;;;;24.05;16.00;;;10.70;99.90;;;;;;5022907;28;20044;-80
2022/11/15 05:11:42;;;;;;;22.38;15.73;;;10.70;99.90;;;;;;5033610;28;20022;-81
2022/11/15 05:14:08;;;;;;;21.70;15.30;;;10.80;99.90;;;;;;5033174;28;20385;-80
2022/11/15 05:16:34;;;;;;;22.40;16.25;;;10.80;99.90;;;;;;5032699;28;20100;-81
2022/11/15 05:19:00;;;;;;;20.33;13.88;;;10.80;99.90;;;;;;5032691;28;20132;-80
2022/11/15 05:21:25;;;;;;;20.27;14.77;;;10.80;99.90;;;;;;5029672;28;20033;-81
2022/11/15 05:23:51;;;;;;;21.10;15.45;;;10.80;99.90;;;;;;5027841;28;20036;-80
2022/11/15 05:26:18;;;;;;;22.30;15.52;;;10.90;99.90;;;;;;5026107;28;20044;-79
2022/11/15 05:28:44;;;;;;;19.98;15.65;;;10.90;99.90;;;;;;5027947;28;20112;-80
2022/11/15 05:31:13;;;;;;;23.02;16.38;;;10.90;99.90;;;;;;5030718;28;20052;-80
2022/11/15 05:33:40;;;;;;;19.83;15.18;;;10.90;99.90;;;;;;5030298;28;20017;-80
2022/11/15 05:36:33;;;;;;;23.00;16.00;;;11.00;99.90;;;;;;5023908;28;20033;-81
2022/11/15 05:38:59;;;;;;;23.63;16.83;;;10.90;99.90;;;;;;5025059;28;20079;-80
2022/11/15 05:41:33;;;;;;;21.80;15.25;;;10.90;99.90;;;;;;5020795;28;20023;-81
2022/11/15 05:44:00;;;;;;;21.17;15.98;;;11.00;99.90;;;;;;5024243;28;20025;-81
2022/11/15 05:46:26;;;;;;;23.30;16.55;;;11.00;99.90;;;;;;5024821;28;20064;-81
2022/11/15 05:48:53;;;;;;;22.85;16.30;;;11.00;99.90;;;;;;5016749;28;20083;-82
2022/11/15 05:51:20;;;;;;;22.40;17.08;;;11.00;99.90;;;;;;5020849;28;20026;-78
2022/11/15 05:53:47;;;;;;;23.50;16.98;;;10.90;99.90;;;;;;5020193;28;20041;-80
2022/11/15 05:56:14;;;;;;;21.58;15.27;;;10.90;99.90;;;;;;5026207;28;20042;-81
2022/11/15 05:58:46;;;;;;;22.17;15.25;;;11.00;99.90;;;;;;5010250;28;20121;-82
2022/11/15 06:01:13;;;;;;;22.40;15.40;;;10.90;99.90;;;;;;5018237;28;20032;-81
2022/11/15 06:03:42;;;;;;;21.35;14.05;;;11.00;99.90;;;;;;5012907;28;20025;-81
2022/11/15 06:06:12;;;;;;;21.02;14.93;;;10.90;99.90;;;;;;5031749;28;20044;-82
2022/11/15 06:08:43;;;;;;;19.02;13.15;;;11.00;99.90;;;;;;5023907;28;20026;-81
2022/11/15 06:11:12;;;;;;;19.27;12.93;;;11.00;99.90;;;;;;5028302;28;20025;-80
2022/11/15 06:13:41;;;;;;;17.52;12.55;;;11.00;99.90;;;;;;5023666;28;20077;-81
2022/11/15 06:16:07;;;;;;;15.63;11.55;;;11.00;99.90;;;;;;5028570;28;20060;-81
2022/11/15 06:18:39;;;;;;;19.65;14.20;;;11.00;99.90;;;;;;5029425;28;20033;-81
2022/11/15 06:21:08;;;;;;;19.98;14.82;;;11.00;99.90;;;;;;5012515;28;20033;-80
2022/11/15 06:23:35;;;;;;;20.02;14.68;;;11.00;99.90;;;;;;5011672;28;20033;-82
2022/11/15 06:26:02;;;;;;;18.48;14.10;;;11.00;99.90;;;;;;5013967;28;20104;-81
2022/11/15 06:28:31;;;;;;;20.13;14.27;;;11.00;99.90;;;;;;5013284;28;20032;-81
2022/11/15 06:31:04;;;;;;;20.40;13.63;;;11.00;99.90;;;;;;5011537;28;20025;-81
2022/11/15 06:33:32;;;;;;;15.23;11.95;;;11.00;99.90;;;;;;5010864;28;20033;-82
2022/11/15 06:36:19;;;;;;;16.40;11.82;;;11.00;99.90;;;;;;5014201;28;20026;-81
2022/11/15 06:38:45;;;;;;;18.08;12.05;;;11.00;99.90;;;;;;5020768;28;20343;-82
2022/11/15 06:41:13;;;;;;;18.33;12.93;;;11.00;99.90;;;;;;5011337;28;20026;-81
2022/11/15 06:43:40;;;;;;;16.15;12.35;;;11.00;99.90;;;;;;5012530;28;20097;-81
2022/11/15 06:46:13;;;;;;;17.38;12.07;;;11.00;99.90;;;;;;5028451;28;20029;-81
2022/11/15 06:48:42;;;;;;;15.25;11.80;;;11.00;99.90;;;;;;5011695;28;20018;-81
2022/11/15 06:51:19;;;;;;;15.45;11.43;;;11.00;99.90;;;;;;5029646;28;20037;-81
2022/11/15 06:53:50;;;;;;;16.85;10.60;;;11.00;99.90;;;;;;5001031;28;20022;-81
2022/11/15 06:56:16;;;;;;;14.85;9.95;;;11.10;99.90;;;;;;5027194;28;20026;-81
2022/11/15 06:58:47;;;;;;;14.13;11.45;;;11.00;99.90;;;;;;5008293;28;20013;-81
2022/11/15 07:01:15;;;;;;;16.00;11.70;;;11.00;99.90;;;;;;5030456;28;20017;-81
2022/11/15 07:03:42;;;;;;;15.45;10.68;;;11.00;99.90;;;;;;5029429;28;20021;-81
2022/11/15 07:06:10;;;;;;;13.85;10.57;;;11.10;99.90;;;;;;5000483;28;20034;-81
2022/11/15 07:08:38;;;;;;;14.43;10.07;;;11.10;99.90;;;;;;5011922;28;20045;-82
2022/11/15 07:11:08;;;;;;;15.73;10.77;;;11.10;99.90;;;;;;5019034;28;20029;-81
2022/11/15 07:13:37;;;;;;;14.23;11.43;;;11.10;99.90;;;;;;5002007;28;20056;-82
2022/11/15 07:16:07;;;;;;;20.13;13.13;;;11.10;99.90;;;;;;5001933;28;20026;-82
2022/11/15 07:18:35;;;;;;;15.02;11.10;;;11.10;99.90;;;;;;5015259;28;20009;-82
2022/11/15 07:21:34;;;;;;;13.57;10.20;;;11.00;99.90;;;;;;5024006;28;20010;-82
2022/11/15 07:24:29;;;;;;;16.10;11.50;;;11.00;99.90;;;;;;4994174;28;20029;-83
2022/11/15 07:27:06;;;;;;;16.10;11.75;;;11.00;99.90;;;;;;5003391;28;20030;-83
2022/11/15 07:29:32;;;;;;;16.45;12.88;;;11.00;99.90;;;;;;5010834;28;20018;-83
2022/11/15 07:32:08;;;;;;;17.23;12.00;;;11.00;99.90;;;;;;5014943;28;20029;-84
2022/11/15 07:34:41;;;;;;;12.75;10.20;;;11.00;99.90;;;;;;5024288;28;20014;-84
2022/11/15 07:37:16;;;;;;;13.52;10.52;;;11.00;99.90;;;;;;5024203;28;20022;-83
2022/11/15 07:39:45;;;;;;;11.27;8.57;;;11.00;99.90;;;;;;5000650;28;20021;-83
2022/11/15 07:45:28;;;;;;;;;;;;;;;;;;;;;
2022/11/15 07:47:56;;;;;;;14.07;9.82;;;11.00;99.90;;;;;;5037479;28;20021;-83
2022/11/15 07:50:23;;;;;;;11.48;9.00;;;11.00;99.90;;;;;;4995554;28;20450;-83
2022/11/15 07:52:57;;;;;;;12.90;9.02;;;11.00;99.90;;;;;;5007675;28;20017;-83
2022/11/15 07:55:29;;;;;;;10.65;8.50;;;11.00;99.90;;;;;;4995491;28;20018;-83
2022/11/15 07:58:24;;;;;;;13.95;10.20;;;11.00;99.90;;;;;;5003465;28;20498;-83
2022/11/15 08:00:50;;;;;;;13.50;9.18;;;11.00;99.90;;;;;;4983112;28;20029;-83
2022/11/15 08:03:18;;;;;;;14.68;10.05;;;11.00;99.90;;;;;;5007613;28;20026;-83
2022/11/15 08:05:49;;;;;;;15.82;10.38;;;11.10;99.90;;;;;;5014130;28;20021;-82
2022/11/15 08:08:17;;;;;;;14.52;10.80;;;11.10;99.90;;;;;;5014782;28;20109;-83
2022/11/15 08:10:43;;;;;;;14.60;11.25;;;11.10;99.90;;;;;;4998951;28;20100;-83
2022/11/15 08:13:11;;;;;;;16.67;11.05;;;11.10;99.90;;;;;;5029817;28;20092;-83
2022/11/15 08:15:51;;;;;;;;;;;;;;;;;;;;;
2022/11/15 08:18:20;;;;;;;15.52;11.63;;;11.10;99.90;;;;;;4995587;28;20060;-84
2022/11/15 08:20:47;;;;;;;14.13;11.20;;;11.10;99.90;;;;;;5004867;28;20026;-83
2022/11/15 08:23:13;;;;;;;15.52;12.10;;;11.10;99.90;;;;;;4996479;28;20029;-83
2022/11/15 08:25:39;;;;;;;15.65;12.25;;;11.10;99.90;;;;;;4997287;28;20019;-83
2022/11/15 08:28:10;;;;;;;14.45;11.43;;;11.10;99.90;;;;;;4997122;28;20019;-82
2022/11/15 08:30:45;;;;;;;15.88;11.50;;;11.10;99.90;;;;;;5010447;28;20037;-83
2022/11/15 08:33:13;;;;;;;16.67;12.40;;;11.20;99.90;;;;;;5005975;28;20076;-83
2022/11/15 08:35:42;;;;;;;18.77;12.75;;;11.20;99.90;;;;;;5002190;28;20014;-83
2022/11/15 08:38:08;;;;;;;15.23;11.20;;;11.20;99.90;;;;;;4987363;28;20029;-84
2022/11/15 08:40:35;;;;;;;16.35;10.68;;;11.30;99.90;;;;;;5007176;28;20397;-84
2022/11/15 08:43:02;;;;;;;15.73;10.90;;;11.40;99.90;;;;;;4994131;28;20445;-83
2022/11/15 08:45:31;;;;;;;15.27;10.93;;;11.60;99.90;;;;;;5002766;28;20025;-83
2022/11/15 08:47:57;;;;;;;15.98;11.75;;;11.60;99.90;;;;;;4997570;28;20465;-83
2022/11/15 08:50:24;;;;;;;17.13;12.20;;;11.60;99.90;;;;;;5002702;28;20042;-84
2022/11/15 08:52:53;;;;;;;13.35;10.70;;;11.60;99.90;;;;;;4978575;28;20513;-83
2022/11/15 08:55:18;;;;;;;14.32;11.05;;;11.60;99.90;;;;;;4991261;28;20022;-82
2022/11/15 09:00:33;;;;;;;15.27;11.60;;;11.90;99.90;;;;;;5015154;28;20057;-84
2022/11/15 09:02:59;;;;;;;16.75;12.35;;;12.00;99.90;;;;;;4997646;28;20022;-83
2022/11/15 09:05:28;;;;;;;15.57;11.65;;;11.90;99.90;;;;;;4993649;28;20033;-83
2022/11/15 09:07:54;;;;;;;17.30;12.82;;;11.90;99.90;;;;;;4989244;28;20531;-82
2022/11/15 09:13:15;;;;;;;15.48;11.52;;;11.80;99.90;;;;;;5014917;28;20491;-83
2022/11/15 09:15:44;;;;;;;17.02;12.00;;;11.70;99.90;;;;;;5002355;28;20022;-83
2022/11/15 09:18:09;;;;;;;17.23;12.07;;;11.70;99.90;;;;;;5011231;28;20037;-83
2022/11/15 09:20:38;;;;;;;15.73;11.60;;;11.70;99.90;;;;;;5004201;28;20025;-83
2022/11/15 09:23:05;;;;;;;15.10;10.98;;;11.70;99.90;;;;;;5014423;28;20061;-83
2022/11/15 09:25:31;;;;;;;14.90;10.45;;;11.70;99.90;;;;;;4997393;28;20022;-83
2022/11/15 09:28:18;;;;;;;15.27;11.38;;;11.70;99.90;;;;;;4999560;28;20021;-83
2022/11/15 09:30:46;;;;;;;16.50;10.80;;;11.70;99.90;;;;;;4995074;28;20100;-83
2022/11/15 09:33:12;;;;;;;17.77;11.35;;;11.80;99.90;;;;;;4996651;28;20022;-83
2022/11/15 09:35:46;;;;;;;14.02;11.32;;;11.80;99.90;;;;;;5014058;28;20053;-83
2022/11/15 09:38:23;;;;;;;13.77;9.63;;;12.00;99.90;;;;;;4996991;28;20108;-83
2022/11/15 09:40:59;;;;;;;13.93;9.95;;;12.30;99.90;;;;;;4986091;28;20053;-83
2022/11/15 09:43:29;;;;;;;11.40;8.82;;;12.40;99.90;;;;;;4980937;28;20108;-83
2022/11/15 09:46:16;;;;;;;12.88;9.20;;;12.80;99.90;;;;;;4987228;28;20030;-82
2022/11/15 09:49:09;;;;;;;10.77;8.65;;;13.10;99.90;;;;;;4984693;28;20141;-83
2022/11/15 09:51:54;;;;;;;11.00;8.52;;;13.10;99.90;;;;;;4991732;28;20038;-83
2022/11/15 09:54:37;;;;;;;11.30;8.32;;;13.20;99.90;;;;;;5013568;28;20049;-82
2022/11/15 09:57:16;;;;;;;11.23;8.02;;;13.30;99.90;;;;;;4994542;28;20031;-82
2022/11/15 10:00:01;;;;;;;9.60;6.82;;;13.10;99.90;;;;;;4996889;28;20022;-83
2022/11/15 10:03:08;;;;;;;11.00;7.30;;;13.10;99.90;;;;;;4996306;28;20365;-84
2022/11/15 10:05:49;;;;;;;10.40;8.18;;;13.00;99.90;;;;;;4900596;29;20071;-83
2022/11/15 10:08:44;;;;;;;10.20;7.68;;;12.80;99.90;;;;;;4977449;28;20045;-84
2022/11/15 10:11:15;;;;;;;10.00;7.97;;;12.70;99.90;;;;;;5005149;28;20033;-82
2022/11/15 10:13:50;;;;;;;8.88;7.82;;;12.50;99.90;;;;;;4996176;28;20159;-82
2022/11/15 10:16:31;;;;;;;10.82;6.78;;;12.50;99.90;;;;;;4995790;28;20060;-82
2022/11/15 10:19:14;;;;;;;11.77;7.82;;;12.70;99.90;;;;;;4993791;28;20488;-83
2022/11/15 10:22:03;;;;;;;10.15;7.35;;;12.60;99.90;;;;;;4994392;28;20363;-83
2022/11/15 10:24:43;;;;;;;7.95;6.20;;;12.60;99.90;;;;;;4994293;28;20468;-83
2022/11/15 10:27:29;;;;;;;8.57;6.30;;;12.50;99.90;;;;;;4984964;28;20028;-83
2022/11/15 10:29:58;;;;;;;6.72;5.70;;;12.40;99.90;;;;;;4983950;28;20025;-83
2022/11/15 10:32:35;;;;;;;7.15;6.00;;;12.50;99.90;;;;;;4993325;28;20013;-83
2022/11/15 10:35:39;;;;;;;;;;;;;;;;;;;;;
2022/11/15 10:38:06;;;;;;;;;;;12.70;99.90;;;;;;5012710;28;20026;-82
2022/11/15 10:40:46;;;;;;;7.65;5.30;;;12.60;99.90;;;;;;4992521;28;19902;-85
2022/11/15 10:43:20;;;;;;;7.07;5.03;;;12.90;99.90;;;;;;5011932;28;20057;-83
2022/11/15 10:45:52;;;;;;;7.05;5.32;;;13.70;99.90;;;;;;5012021;28;20096;-83
2022/11/15 10:48:24;;;;;;;6.37;4.27;;;14.10;99.90;;;;;;4994630;28;20476;-82
2022/11/15 10:51:39;;;;;;;5.78;3.95;;;14.50;99.90;;;;;;5010752;28;20021;-82
2022/11/15 10:54:10;;;;;;;5.72;2.97;;;15.00;99.90;;;;;;4984850;28;20037;-82
2022/11/15 10:56:36;;;;;;;5.05;2.80;;;15.70;99.90;;;;;;4994780;28;20474;-83
2022/11/15 10:59:14;;;;;;;4.93;3.40;;;15.80;99.90;;;;;;4994891;28;20029;-82
2022/11/15 11:01:52;;;;;;;4.35;2.70;;;15.90;99.90;;;;;;4994829;28;20018;-82
2022/11/15 11:04:19;;;;;;;5.93;2.70;;;15.60;99.90;;;;;;4992940;28;20036;-83
2022/11/15 11:07:00;;;;;;;3.63;2.33;;;15.00;99.90;;;;;;5010189;28;20034;-83
2022/11/15 11:09:36;;;;;;;3.33;2.35;;;14.70;99.90;;;;;;4992414;28;20025;-83
2022/11/15 11:12:10;;;;;;;4.57;2.15;;;14.90;99.90;;;;;;4994592;28;20018;-83
2022/11/15 11:14:47;;;;;;;5.53;2.35;;;15.20;99.90;;;;;;5012412;28;20022;-83
2022/11/15 11:17:37;;;;;;;3.20;1.70;;;15.70;99.90;;;;;;5012612;28;20079;-82
2022/11/15 11:20:46;;;;;;;4.53;2.20;;;16.10;99.90;;;;;;5029265;28;20033;-83
2022/11/15 11:23:37;;;;;;;2.60;1.40;;;16.50;99.90;;;;;;5029533;28;20026;-83
2022/11/15 11:26:35;;;;;;;2.30;1.38;;;16.80;99.90;;;;;;5027121;28;20100;-82
2022/11/15 11:29:24;;;;;;;2.50;1.42;;;16.90;99.90;;;;;;5027576;28;20021;-83
2022/11/15 11:31:53;;;;;;;4.60;1.40;;;17.30;99.90;;;;;;5029364;28;20045;-82
2022/11/15 11:34:40;;;;;;;3.47;1.38;;;17.30;99.90;;;;;;5028816;28;20421;-83
2022/11/15 11:37:42;;;;;;;4.55;1.70;;;17.60;99.90;;;;;;5035943;28;20536;-82
2022/11/15 11:40:41;;;;;;;3.42;1.30;;;17.70;99.90;;;;;;4949111;28;20035;-83
2022/11/15 11:43:18;;;;;;;2.47;1.00;;;17.80;99.90;;;;;;4979593;28;20057;-81
2022/11/15 11:46:28;;;;;;;1.30;0.80;;;18.00;99.90;;;;;;5032575;28;20017;-81
2022/11/15 11:49:04;;;;;;;3.45;0.73;;;18.50;99.90;;;;;;5033017;28;20021;-81
2022/11/15 11:51:54;;;;;;;3.40;1.15;;;18.80;99.90;;;;;;5034661;28;20049;-82
2022/11/15 11:54:33;;;;;;;;;;;;;;;;;;;;;
2022/11/15 11:57:09;;;;;;;3.22;1.10;;;19.00;99.90;;;;;;5032958;28;20469;-82
2022/11/15 11:59:58;;;;;;;6.82;1.30;;;18.60;99.90;;;;;;5032938;28;20057;-82
2022/11/15 12:02:34;;;;;;;3.90;1.15;;;17.60;99.90;;;;;;5025478;28;20025;-82
2022/11/15 12:05:18;;;;;;;1.88;0.93;;;16.50;99.90;;;;;;5017650;28;20025;-83
2022/11/15 12:07:46;;;;;;;3.50;0.90;;;15.60;99.90;;;;;;5032950;28;20029;-81
2022/11/15 12:10:26;;;;;;;3.08;1.25;;;15.10;99.90;;;;;;5031227;28;20030;-82
2022/11/15 12:13:17;;;;;;;2.78;1.20;;;14.80;99.90;;;;;;5030359;28;20108;-80
2022/11/15 12:16:12;;;;;;;2.72;1.05;;;14.60;99.90;;;;;;5031192;28;20018;-81
2022/11/15 12:18:38;;;;;;;2.22;0.95;;;14.30;99.90;;;;;;4998706;28;20053;-83
2022/11/15 12:21:25;;;;;;;1.58;0.80;;;14.10;99.90;;;;;;5033533;28;20043;-81
2022/11/15 12:23:55;;;;;;;2.78;0.80;;;13.90;99.90;;;;;;5033543;28;20033;-81
2022/11/15 12:26:33;;;;;;;2.92;1.20;;;13.70;99.90;;;;;;5024601;28;20037;-81
2022/11/15 12:29:03;;;;;;;2.35;0.70;;;13.70;99.90;;;;;;5033283;28;20026;-81
2022/11/15 12:31:39;;;;;;;2.17;0.85;;;13.60;99.90;;;;;;5031441;28;20023;-81
2022/11/15 12:34:19;;;;;;;2.05;0.73;;;13.70;99.90;;;;;;5033570;28;20113;-81
2022/11/15 12:36:51;;;;;;;2.10;0.90;;;13.70;99.90;;;;;;5025526;28;20054;-82
2022/11/15 12:39:18;;;;;;;3.00;0.88;;;13.80;99.90;;;;;;5015962;28;20013;-82
2022/11/15 12:41:55;;;;;;;4.07;1.00;;;14.00;99.90;;;;;;5033268;28;20412;-82
2022/11/15 12:44:30;;;;;;;2.53;1.08;;;14.30;99.90;;;;;;5032411;28;20022;-81
2022/11/15 12:47:01;;;;;;;1.88;0.88;;;14.60;99.90;;;;;;5033193;28;20030;-81
2022/11/15 12:49:27;;;;;;;2.25;0.90;;;15.10;99.90;;;;;;5030409;28;20032;-81
2022/11/15 12:51:58;;;;;;;2.13;0.80;;;15.50;99.90;;;;;;5031573;28;20021;-82
2022/11/15 12:54:24;;;;;;;2.63;0.73;;;15.80;99.90;;;;;;5031039;28;20112;-81
2022/11/15 12:57:08;;;;;;;1.65;0.73;;;16.00;99.90;;;;;;5032634;28;20164;-81
2022/11/15 12:59:50;;;;;;;3.53;0.93;;;16.20;99.90;;;;;;5031752;28;20032;-82
2022/11/15 13:02:46;;;;;;;1.60;0.60;;;16.10;99.90;;;;;;5032305;28;20018;-81
2022/11/15 13:05:18;;;;;;;3.10;0.65;;;15.80;99.90;;;;;;5031346;28;20084;-81
2022/11/15 13:07:44;;;;;;;1.80;0.80;;;15.60;99.90;;;;;;5031010;28;20032;-82
2022/11/15 13:10:09;;;;;;;3.42;0.70;;;15.60;99.90;;;;;;5033318;28;20025;-81
2022/11/15 13:12:38;;;;;;;3.40;0.70;;;15.50;99.90;;;;;;5032403;28;20092;-81
2022/11/15 13:15:13;;;;;;;2.75;0.60;;;15.50;99.90;;;;;;5032445;28;20025;-81
2022/11/15 13:17:51;;;;;;;2.22;0.60;;;15.60;99.90;;;;;;5032916;28;20084;-82
2022/11/15 13:20:31;;;;;;;1.35;0.60;;;15.50;99.90;;;;;;5014660;28;20021;-82
2022/11/15 13:23:15;;;;;;;2.25;0.50;;;15.50;99.90;;;;;;5014039;28;20049;-81
2022/11/15 13:25:53;;;;;;;2.05;0.60;;;15.40;99.90;;;;;;4988722;28;20042;-81
2022/11/15 13:28:19;;;;;;;3.15;0.70;;;15.20;99.90;;;;;;5028861;28;20503;-81
2022/11/15 13:30:48;;;;;;;2.35;0.70;;;14.80;99.90;;;;;;5027728;28;20052;-82